Pelion, South Carolina
Current Conditions -  °F | °C
As of 8:56 AM on Sunday 25 Jan 2015 (Local Time) from KCAE Reporting Station
Few Clouds Few Clouds  
Wind Chill: 35°   Ceiling: Unl
Heat Index: 35°   Visibility: 10mi
Dew Point: 31°   Wind: 0mph
Humidity: 85%   Direction: NA
Pressure: 29.98"   Gusts: NA
Location:  33.76°N, 81.24°W
Report Text: KCAE 251356Z 00000KT 10SM FEW180 02/M01 A2998 RMK AO2 SLP152 T00171006 $
Loading
Personal Weather Stations






























Interactive Weather Map New forecast layout! Learn more

10-Day Weather Forecast

Advertisements
Track Severe Weather on mobile